Time;durP1;ratioP1;P1;durP2;ratioP2;P2;SDS_P1;SDS_P2;PMS_P1;PMS_P2;Temp;Humidity;BMP_temperature;BMP_pressure;BME280_temperature;BME280_humidity;BME280_pressure;Samples;Min_cycle;Max_cycle;Signal;HPM_P1;HPM_P2
2022/10/30 00:02:07;;;;;;;17.85;10.25;;;;;;;;;;5037245;28;20396;-86
2022/10/30 00:04:33;;;;;;;16.88;9.77;;;;;;;;;;5053076;28;20442;-87
2022/10/30 00:06:58;;;;;;;15.45;9.65;;;;;;;;;;5040940;28;20035;-87
2022/10/30 00:09:24;;;;;;;15.85;9.88;;;;;;;;;;5051718;28;20080;-86
2022/10/30 00:11:49;;;;;;;15.98;9.65;;;;;;;;;;5053382;28;20113;-86
2022/10/30 00:14:15;;;;;;;17.90;10.13;;;;;;;;;;5055314;28;20044;-87
2022/10/30 00:16:40;;;;;;;18.15;10.82;;;;;;;;;;5073024;28;20044;-87
2022/10/30 00:19:06;;;;;;;14.93;9.55;;;;;;;;;;5075022;28;20093;-87
2022/10/30 00:21:31;;;;;;;15.85;9.32;;;;;;;;;;5048657;28;20395;-86
2022/10/30 00:23:56;;;;;;;16.95;10.13;;;;;;;;;;5039516;28;20120;-87
2022/10/30 00:26:25;;;;;;;16.88;9.95;;;;;;;;;;5056992;28;20031;-87
2022/10/30 00:28:52;;;;;;;21.15;10.48;;;;;;;;;;5030338;28;20033;-87
2022/10/30 00:31:18;;;;;;;16.73;10.45;;;;;;;;;;5041643;28;20036;-87
2022/10/30 00:33:49;;;;;;;20.13;10.82;;;;;;;;;;5051909;28;20027;-87
2022/10/30 00:36:14;;;;;;;16.80;9.60;;;;;;;;;;5065078;28;20396;-87
2022/10/30 00:38:40;;;;;;;19.17;11.07;;;;;;;;;;5061365;28;20039;-87
2022/10/30 00:41:05;;;;;;;16.48;9.88;;;;;;;;;;5043008;28;20104;-89
2022/10/30 00:43:37;;;;;;;15.75;9.27;;;;;;;;;;5079633;28;20167;-89
2022/10/30 00:46:19;;;;;;;16.90;9.65;;;;;;;;;;5062663;28;20028;-88
2022/10/30 00:48:49;;;;;;;17.38;9.90;;;;;;;;;;5068602;28;20035;-88
2022/10/30 00:51:14;;;;;;;15.35;10.05;;;;;;;;;;5072814;28;20036;-89
2022/10/30 00:53:42;;;;;;;17.25;10.57;;;;;;;;;;5057025;28;20043;-88
2022/10/30 00:56:11;;;;;;;15.93;10.05;;;;;;;;;;5050357;28;20028;-89
2022/10/30 00:58:50;;;;;;;18.33;10.23;;;;;;;;;;5084955;28;20040;-89
2022/10/30 01:01:21;;;;;;;17.48;10.88;;;;;;;;;;5040760;28;20033;-89
2022/10/30 01:03:48;;;;;;;17.42;10.80;;;;;;;;;;5031568;28;20041;-89
2022/10/30 01:06:14;;;;;;;17.20;10.55;;;;;;;;;;5061243;28;20114;-89
2022/10/30 01:08:40;;;;;;;21.05;11.73;;;;;;;;;;5052493;28;20044;-88
2022/10/30 01:11:06;;;;;;;17.85;11.82;;;;;;;;;;5069511;28;20078;-89
2022/10/30 01:13:33;;;;;;;20.75;11.95;;;;;;;;;;5074957;28;20115;-89
2022/10/30 01:16:16;;;;;;;20.63;11.32;;;;;;;;;;5057402;28;20094;-89
2022/10/30 01:19:05;;;;;;;17.60;11.18;;;;;;;;;;5090412;28;20044;-89
2022/10/30 01:21:43;;;;;;;18.52;11.13;;;;;;;;;;5049465;28;20086;-89
2022/10/30 01:24:23;;;;;;;18.83;11.23;;;;;;;;;;5091291;28;20063;-89
2022/10/30 01:27:06;;;;;;;17.92;10.65;;;;;;;;;;5066687;28;20029;-89
2022/10/30 01:29:59;;;;;;;16.70;10.48;;;;;;;;;;5086327;28;20033;-87
2022/10/30 01:33:02;;;;;;;19.17;12.70;;;;;;;;;;5044206;28;20455;-89
2022/10/30 01:35:50;;;;;;;18.73;12.10;;;;;;;;;;5056718;28;20039;-89
2022/10/30 01:38:23;;;;;;;16.55;11.75;;;;;;;;;;5056876;28;20033;-88
2022/10/30 01:40:49;;;;;;;21.15;11.80;;;;;;;;;;5051516;28;20479;-88
2022/10/30 01:43:15;;;;;;;19.55;11.30;;;;;;;;;;5028416;28;20067;-89
2022/10/30 01:45:46;;;;;;;18.25;11.02;;;;;;;;;;5039738;28;20058;-89
2022/10/30 01:48:25;;;;;;;16.45;10.90;;;;;;;;;;5092236;28;20038;-90
2022/10/30 01:51:39;;;;;;;18.60;11.23;;;;;;;;;;5079716;28;20433;-88
2022/10/30 01:54:11;;;;;;;21.17;11.80;;;;;;;;;;5023435;28;20067;-90
2022/10/30 01:56:54;;;;;;;19.30;12.70;;;;;;;;;;5058301;28;20028;-89
2022/10/30 01:59:29;;;;;;;19.60;12.05;;;;;;;;;;5046395;28;20032;-86
2022/10/30 02:01:55;;;;;;;18.88;11.98;;;;;;;;;;5085411;28;20499;-89
2022/10/30 02:04:20;;;;;;;18.13;12.52;;;;;;;;;;5036795;28;20033;-88
2022/10/30 02:06:46;;;;;;;18.65;11.45;;;;;;;;;;5050991;28;20130;-89
2022/10/30 02:09:14;;;;;;;18.83;11.23;;;;;;;;;;5042734;28;20048;-89
2022/10/30 02:11:39;;;;;;;20.30;12.32;;;;;;;;;;5083878;28;20547;-89
2022/10/30 02:14:06;;;;;;;21.30;12.02;;;;;;;;;;5031638;28;20064;-89
2022/10/30 02:16:38;;;;;;;19.15;12.70;;;;;;;;;;5066217;28;20043;-90
2022/10/30 02:19:05;;;;;;;18.73;11.40;;;;;;;;;;5043362;28;20032;-89
2022/10/30 02:21:30;;;;;;;17.67;12.00;;;;;;;;;;5054822;28;20124;-89
2022/10/30 02:23:56;;;;;;;23.55;11.60;;;;;;;;;;5042279;28;20128;-89
2022/10/30 02:26:21;;;;;;;21.50;11.45;;;;;;;;;;5068865;28;20037;-88
2022/10/30 02:28:46;;;;;;;17.50;11.77;;;;;;;;;;5078437;28;20119;-89
2022/10/30 02:31:12;;;;;;;19.13;11.88;;;;;;;;;;5045025;28;20483;-89
2022/10/30 02:33:37;;;;;;;20.38;12.18;;;;;;;;;;5076430;28;20032;-89
2022/10/30 02:36:03;;;;;;;17.40;11.35;;;;;;;;;;5053307;28;20491;-89
2022/10/30 02:38:29;;;;;;;18.02;11.25;;;;;;;;;;5053308;28;20043;-88
2022/10/30 02:40:56;;;;;;;17.25;11.25;;;;;;;;;;5046120;28;20427;-88
2022/10/30 02:43:22;;;;;;;18.77;10.75;;;;;;;;;;5047169;28;20123;-88
2022/10/30 02:45:50;;;;;;;15.63;10.80;;;;;;;;;;5045426;28;20705;-89
2022/10/30 02:48:16;;;;;;;16.80;10.75;;;;;;;;;;5031518;28;20043;-89
2022/10/30 02:50:41;;;;;;;19.42;10.80;;;;;;;;;;5035735;28;20032;-88
2022/10/30 02:53:07;;;;;;;17.00;10.90;;;;;;;;;;5046083;28;20041;-88
2022/10/30 02:55:32;;;;;;;20.33;11.02;;;;;;;;;;5031956;28;20467;-89
2022/10/30 02:57:57;;;;;;;18.05;11.45;;;;;;;;;;5047311;28;20028;-88
2022/10/30 03:00:23;;;;;;;18.05;10.38;;;;;;;;;;5077241;28;20039;-88
2022/10/30 03:02:56;;;;;;;15.30;10.50;;;;;;;;;;5053752;28;20047;-89
2022/10/30 03:05:21;;;;;;;19.88;11.57;;;;;;;;;;5032476;28;20033;-88
2022/10/30 03:08:07;;;;;;;17.05;10.32;;;;;;;;;;5042813;28;20047;-89
2022/10/30 03:10:32;;;;;;;19.25;10.82;;;;;;;;;;5076369;28;20090;-88
2022/10/30 03:12:58;;;;;;;21.52;10.80;;;;;;;;;;5043907;28;20074;-90
2022/10/30 03:15:23;;;;;;;18.85;11.52;;;;;;;;;;5051910;28;20111;-89
2022/10/30 03:17:51;;;;;;;16.88;10.70;;;;;;;;;;5065447;28;20043;-90
2022/10/30 03:20:16;;;;;;;15.25;10.52;;;;;;;;;;5041041;28;20502;-90
2022/10/30 03:22:42;;;;;;;19.17;10.88;;;;;;;;;;5041461;28;20043;-89
2022/10/30 03:25:07;;;;;;;21.42;10.27;;;;;;;;;;5053577;28;20071;-89
2022/10/30 03:27:33;;;;;;;17.02;10.68;;;;;;;;;;5076322;28;20103;-89
2022/10/30 03:29:58;;;;;;;16.33;10.85;;;;;;;;;;5045106;28;20085;-90
2022/10/30 03:32:24;;;;;;;16.70;10.32;;;;;;;;;;5046198;28;20037;-89
2022/10/30 03:34:49;;;;;;;16.88;10.80;;;;;;;;;;5077903;28;20531;-87
2022/10/30 03:37:14;;;;;;;19.45;11.18;;;;;;;;;;5045755;28;20111;-87
2022/10/30 03:39:40;;;;;;;18.98;10.68;;;;;;;;;;5054595;28;20506;-87
2022/10/30 03:42:05;;;;;;;18.50;11.20;;;;;;;;;;5043992;28;20063;-87
2022/10/30 03:44:33;;;;;;;16.88;10.82;;;;;;;;;;5046593;28;20036;-87
2022/10/30 03:46:58;;;;;;;17.52;10.95;;;;;;;;;;5084753;28;20077;-88
2022/10/30 03:49:24;;;;;;;17.20;10.70;;;;;;;;;;5048024;28;20040;-87
2022/10/30 03:51:49;;;;;;;17.95;11.32;;;;;;;;;;5063179;28;20032;-87
2022/10/30 03:54:15;;;;;;;22.13;11.25;;;;;;;;;;5046881;28;20036;-87
2022/10/30 03:56:40;;;;;;;17.98;11.13;;;;;;;;;;5045279;28;20040;-87
2022/10/30 03:59:05;;;;;;;17.95;10.45;;;;;;;;;;5053074;28;20444;-87
2022/10/30 04:01:31;;;;;;;17.10;10.60;;;;;;;;;;5077680;28;20119;-88
2022/10/30 04:03:56;;;;;;;20.65;11.13;;;;;;;;;;5051992;28;20037;-87
2022/10/30 04:06:22;;;;;;;24.95;10.80;;;;;;;;;;5047323;28;20028;-87
2022/10/30 04:08:47;;;;;;;18.30;11.43;;;;;;;;;;5052536;28;20040;-88
2022/10/30 04:11:15;;;;;;;17.10;10.63;;;;;;;;;;5082979;28;20032;-86
2022/10/30 04:13:40;;;;;;;15.60;10.18;;;;;;;;;;5046045;28;20863;-88
2022/10/30 04:16:06;;;;;;;18.40;11.27;;;;;;;;;;5077103;28;20165;-89
2022/10/30 04:18:31;;;;;;;16.40;10.45;;;;;;;;;;5080346;28;20039;-88
2022/10/30 04:20:58;;;;;;;16.23;10.02;;;;;;;;;;5048426;28;20024;-89
2022/10/30 04:23:24;;;;;;;18.58;10.40;;;;;;;;;;5089484;28;20043;-89
2022/10/30 04:25:49;;;;;;;16.17;9.73;;;;;;;;;;5045808;28;20488;-88
2022/10/30 04:28:15;;;;;;;19.92;9.95;;;;;;;;;;5054581;28;20097;-88
2022/10/30 04:30:40;;;;;;;16.15;10.32;;;;;;;;;;5080059;28;20115;-88
2022/10/30 04:33:10;;;;;;;15.90;9.95;;;;;;;;;;5046548;28;20032;-89
2022/10/30 04:35:36;;;;;;;19.63;10.07;;;;;;;;;;5052722;28;20031;-88
2022/10/30 04:38:03;;;;;;;15.93;9.80;;;;;;;;;;5084398;28;20074;-88
2022/10/30 04:40:32;;;;;;;16.02;9.57;;;;;;;;;;5058172;28;21057;-88
2022/10/30 04:42:58;;;;;;;16.10;9.77;;;;;;;;;;5063148;28;20028;-88
2022/10/30 04:45:23;;;;;;;16.85;9.98;;;;;;;;;;5077089;28;20514;-88
2022/10/30 04:47:49;;;;;;;17.90;10.48;;;;;;;;;;5085148;28;20118;-88
2022/10/30 04:50:17;;;;;;;16.25;10.50;;;;;;;;;;5053993;28;20472;-88
2022/10/30 04:52:42;;;;;;;;;;;;;;;;;;5048960;28;20064;-88
2022/10/30 04:55:09;;;;;;;17.23;10.18;;;;;;;;;;5081860;28;19959;-89
2022/10/30 04:57:35;;;;;;;15.18;9.95;;;;;;;;;;5043747;28;20564;-88
2022/10/30 05:00:05;;;;;;;20.50;10.93;;;;;;;;;;5046362;28;20094;-88
2022/10/30 05:02:31;;;;;;;17.20;10.07;;;;;;;;;;5083908;28;20040;-87
2022/10/30 05:04:56;;;;;;;16.90;10.10;;;;;;;;;;5041899;28;20028;-87
2022/10/30 05:07:21;;;;;;;16.30;10.25;;;;;;;;;;5069793;28;20509;-87
2022/10/30 05:09:47;;;;;;;17.08;10.05;;;;;;;;;;5061696;28;20066;-87
2022/10/30 05:12:12;;;;;;;15.25;10.27;;;;;;;;;;5063836;28;20040;-87
2022/10/30 05:14:38;;;;;;;15.02;10.27;;;;;;;;;;5052835;28;20494;-87
2022/10/30 05:17:03;;;;;;;18.65;10.30;;;;;;;;;;5075845;28;20509;-87
2022/10/30 05:19:29;;;;;;;17.35;10.50;;;;;;;;;;5080383;28;20035;-87
2022/10/30 05:21:54;;;;;;;15.23;10.52;;;;;;;;;;5050691;28;20124;-88
2022/10/30 05:24:20;;;;;;;17.55;10.13;;;;;;;;;;5044216;28;20036;-87
2022/10/30 05:26:45;;;;;;;15.55;10.20;;;;;;;;;;5058044;28;20028;-87
2022/10/30 05:29:12;;;;;;;17.70;9.85;;;;;;;;;;5045201;28;20101;-87
2022/10/30 05:31:37;;;;;;;18.20;11.25;;;;;;;;;;5056897;28;20029;-88
2022/10/30 05:34:03;;;;;;;17.52;10.50;;;;;;;;;;5047352;28;20384;-87
2022/10/30 05:36:31;;;;;;;18.77;10.73;;;;;;;;;;5047561;28;20487;-87
2022/10/30 05:38:56;;;;;;;18.13;10.88;;;;;;;;;;5059244;28;20056;-87
2022/10/30 05:41:22;;;;;;;18.55;10.45;;;;;;;;;;5038355;28;20067;-87
2022/10/30 05:43:47;;;;;;;16.63;10.30;;;;;;;;;;5050627;28;20105;-88
2022/10/30 05:46:16;;;;;;;17.15;10.45;;;;;;;;;;5080311;28;20027;-89
2022/10/30 05:48:41;;;;;;;15.35;10.10;;;;;;;;;;5063219;28;21027;-89
2022/10/30 05:51:07;;;;;;;17.75;10.65;;;;;;;;;;5075008;28;20032;-89
2022/10/30 05:53:32;;;;;;;15.85;10.00;;;;;;;;;;5044029;28;20563;-90
2022/10/30 05:55:58;;;;;;;14.95;9.80;;;;;;;;;;5044036;28;20111;-88
2022/10/30 05:58:26;;;;;;;19.52;10.30;;;;;;;;;;5074763;28;20047;-88
2022/10/30 06:00:52;;;;;;;17.60;9.90;;;;;;;;;;5049527;28;20025;-88
2022/10/30 06:03:17;;;;;;;17.52;9.45;;;;;;;;;;5079002;28;20089;-88
2022/10/30 06:05:46;;;;;;;17.10;9.80;;;;;;;;;;5051729;28;20040;-87
2022/10/30 06:08:12;;;;;;;16.65;9.25;;;;;;;;;;5050030;28;20055;-88
2022/10/30 06:10:37;;;;;;;19.50;10.00;;;;;;;;;;5052505;28;20028;-89
2022/10/30 06:13:04;;;;;;;13.05;8.93;;;;;;;;;;5045788;28;20035;-87
2022/10/30 06:15:31;;;;;;;16.48;8.98;;;;;;;;;;5094090;28;20032;-88
2022/10/30 06:17:56;;;;;;;14.20;8.45;;;;;;;;;;5045237;28;20029;-89
2022/10/30 06:20:24;;;;;;;14.85;8.50;;;;;;;;;;5052969;28;20517;-87
2022/10/30 06:23:16;;;;;;;15.20;8.93;;;;;;;;;;5078024;28;20363;-87
2022/10/30 06:25:41;;;;;;;15.38;9.10;;;;;;;;;;5043805;28;20515;-88
2022/10/30 06:28:09;;;;;;;15.18;8.93;;;;;;;;;;5042742;28;20024;-88
2022/10/30 06:30:34;;;;;;;14.75;8.75;;;;;;;;;;5073861;28;20024;-89
2022/10/30 06:33:01;;;;;;;13.57;8.98;;;;;;;;;;5049926;28;20039;-89
2022/10/30 06:35:27;;;;;;;15.40;8.90;;;;;;;;;;5033031;28;20036;-86
2022/10/30 06:37:57;;;;;;;15.02;9.50;;;;;;;;;;5043378;28;20048;-86
2022/10/30 06:40:22;;;;;;;16.25;9.13;;;;;;;;;;5055834;28;20025;-86
2022/10/30 06:42:50;;;;;;;13.98;8.93;;;;;;;;;;5036566;28;20044;-86
2022/10/30 06:45:18;;;;;;;16.27;9.25;;;;;;;;;;5028548;28;20566;-86
2022/10/30 06:47:46;;;;;;;13.57;8.73;;;;;;;;;;5046295;28;20036;-87
2022/10/30 06:50:14;;;;;;;14.60;8.38;;;;;;;;;;5070839;28;22129;-87
2022/10/30 06:52:40;;;;;;;13.80;8.48;;;;;;;;;;5046636;28;20036;-87
2022/10/30 06:55:06;;;;;;;14.00;8.57;;;;;;;;;;5056332;28;20539;-87
2022/10/30 06:57:32;;;;;;;14.43;8.60;;;;;;;;;;5051086;28;20036;-87
2022/10/30 06:59:57;;;;;;;16.77;8.45;;;;;;;;;;5072987;28;20120;-87
2022/10/30 07:02:23;;;;;;;13.45;8.02;;;;;;;;;;5040066;28;20032;-86
2022/10/30 07:04:48;;;;;;;13.20;8.48;;;;;;;;;;5037445;28;20041;-87
2022/10/30 07:07:14;;;;;;;12.60;8.02;;;;;;;;;;5041223;28;20028;-87
2022/10/30 07:09:39;;;;;;;13.20;7.97;;;;;;;;;;5053046;28;20047;-87
2022/10/30 07:12:06;;;;;;;13.35;8.90;;;;;;;;;;5057783;28;20036;-87
2022/10/30 07:14:31;;;;;;;17.95;8.68;;;;;;;;;;5049777;28;20043;-88
2022/10/30 07:16:56;;;;;;;14.45;8.07;;;;;;;;;;5042926;28;20119;-88
2022/10/30 07:19:22;;;;;;;15.20;8.27;;;;;;;;;;5084106;28;20066;-85
2022/10/30 07:21:48;;;;;;;15.52;8.10;;;;;;;;;;5047389;28;20032;-88
2022/10/30 07:24:13;;;;;;;12.65;7.50;;;;;;;;;;5046130;28;20032;-87
2022/10/30 07:26:41;;;;;;;12.07;8.00;;;;;;;;;;5047435;28;20039;-87
2022/10/30 07:29:09;;;;;;;13.23;8.23;;;;;;;;;;5059178;28;20036;-87
2022/10/30 07:31:34;;;;;;;14.50;8.10;;;;;;;;;;5056341;28;20403;-87
2022/10/30 07:34:00;;;;;;;16.02;8.48;;;;;;;;;;5054375;28;20043;-88
2022/10/30 07:36:25;;;;;;;12.20;7.65;;;;;;;;;;5037382;28;20121;-86
2022/10/30 07:38:51;;;;;;;12.82;7.38;;;;;;;;;;5081277;28;20032;-86
2022/10/30 07:41:17;;;;;;;12.20;7.93;;;;;;;;;;5044355;28;20032;-87
2022/10/30 07:43:43;;;;;;;16.08;7.68;;;;;;;;;;5076994;28;20113;-87
2022/10/30 07:46:08;;;;;;;12.85;7.30;;;;;;;;;;5043724;28;20087;-87
2022/10/30 07:48:34;;;;;;;13.50;7.57;;;;;;;;;;5053158;28;20119;-87
2022/10/30 07:50:59;;;;;;;13.82;8.15;;;;;;;;;;5054652;28;20142;-86
2022/10/30 07:53:25;;;;;;;10.85;6.53;;;;;;;;;;5049558;28;20062;-87
2022/10/30 07:55:50;;;;;;;23.60;7.30;;;;;;;;;;5043423;28;20039;-87
2022/10/30 07:58:16;;;;;;;13.32;7.18;;;;;;;;;;5047663;28;20430;-87
2022/10/30 08:00:41;;;;;;;10.75;6.55;;;;;;;;;;5082674;28;20028;-87
2022/10/30 08:03:08;;;;;;;14.00;7.10;;;;;;;;;;5051781;28;20028;-87
2022/10/30 08:05:36;;;;;;;14.33;6.60;;;;;;;;;;5060103;28;20051;-87
2022/10/30 08:08:02;;;;;;;11.55;7.03;;;;;;;;;;5053390;28;20036;-87
2022/10/30 08:10:30;;;;;;;10.63;6.15;;;;;;;;;;5043715;28;20024;-86
2022/10/30 08:12:55;;;;;;;11.50;6.80;;;;;;;;;;5048703;28;20044;-88
2022/10/30 08:15:22;;;;;;;11.20;6.50;;;;;;;;;;5079641;28;20484;-87
2022/10/30 08:17:48;;;;;;;10.13;6.50;;;;;;;;;;5068412;28;20527;-87
2022/10/30 08:20:19;;;;;;;9.77;5.43;;;;;;;;;;5035173;28;20105;-88
2022/10/30 08:22:48;;;;;;;11.93;5.82;;;;;;;;;;5022861;28;20101;-87
2022/10/30 08:25:15;;;;;;;10.68;5.63;;;;;;;;;;5076752;28;20520;-87
2022/10/30 08:27:56;;;;;;;12.83;5.47;;;;;;;;;;5051148;28;20036;-87
2022/10/30 08:30:23;;;;;;;10.75;5.35;;;;;;;;;;5092683;28;20086;-85
2022/10/30 08:32:49;;;;;;;12.23;5.40;;;;;;;;;;5048254;28;20037;-86
2022/10/30 08:35:15;;;;;;;11.32;6.25;;;;;;;;;;5079379;28;20501;-85
2022/10/30 08:37:41;;;;;;;10.20;5.13;;;;;;;;;;5050598;28;20483;-86
2022/10/30 08:40:08;;;;;;;10.25;5.28;;;;;;;;;;5050368;28;20041;-86
2022/10/30 08:42:34;;;;;;;11.07;5.50;;;;;;;;;;5072019;28;20550;-86
2022/10/30 08:44:59;;;;;;;12.52;5.43;;;;;;;;;;5048014;28;20052;-86
2022/10/30 08:47:29;;;;;;;10.95;5.03;;;;;;;;;;5046421;28;20041;-85
2022/10/30 08:49:54;;;;;;;8.75;5.30;;;;;;;;;;5044422;28;20526;-86
2022/10/30 08:52:20;;;;;;;11.18;5.22;;;;;;;;;;5048298;28;20127;-86
2022/10/30 08:54:45;;;;;;;15.23;5.93;;;;;;;;;;5080832;28;20040;-84
2022/10/30 08:57:11;;;;;;;8.88;5.25;;;;;;;;;;5060965;28;20059;-84
2022/10/30 08:59:36;;;;;;;10.40;4.82;;;;;;;;;;5047343;28;20094;-83
2022/10/30 09:02:02;;;;;;;10.07;4.75;;;;;;;;;;5072674;28;20028;-84
2022/10/30 09:04:27;;;;;;;7.97;5.10;;;;;;;;;;5080178;28;20932;-84
2022/10/30 09:06:53;;;;;;;12.35;4.68;;;;;;;;;;5053672;28;20032;-84
2022/10/30 09:09:18;;;;;;;11.55;4.95;;;;;;;;;;5043085;28;20098;-84
2022/10/30 09:11:44;;;;;;;11.95;5.40;;;;;;;;;;5068205;28;20136;-84
2022/10/30 09:14:11;;;;;;;8.20;4.57;;;;;;;;;;5043412;28;20098;-85
2022/10/30 09:16:37;;;;;;;12.60;5.00;;;;;;;;;;5044848;28;20075;-84
2022/10/30 09:19:05;;;;;;;8.60;4.78;;;;;;;;;;5054976;28;20506;-87
2022/10/30 09:21:33;;;;;;;9.73;4.65;;;;;;;;;;5038882;28;20119;-88
2022/10/30 09:24:04;;;;;;;8.55;4.80;;;;;;;;;;5034506;28;20062;-87
2022/10/30 09:26:33;;;;;;;11.13;5.70;;;;;;;;;;5032343;28;20473;-88
2022/10/30 09:28:59;;;;;;;9.10;4.85;;;;;;;;;;5052344;28;20040;-87
2022/10/30 09:31:36;;;;;;;8.43;4.47;;;;;;;;;;5051087;28;20041;-86
2022/10/30 09:34:04;;;;;;;8.95;4.10;;;;;;;;;;5036046;28;20493;-89
2022/10/30 09:36:32;;;;;;;9.75;4.75;;;;;;;;;;5044218;28;20452;-87
2022/10/30 09:38:58;;;;;;;9.35;4.35;;;;;;;;;;5062275;28;20116;-86
2022/10/30 09:41:44;;;;;;;7.78;4.40;;;;;;;;;;5044243;28;20122;-86
2022/10/30 09:44:37;;;;;;;10.25;4.35;;;;;;;;;;5062906;28;20044;-87
2022/10/30 09:47:19;;;;;;;11.10;4.60;;;;;;;;;;5060499;28;20090;-87
2022/10/30 09:50:02;;;;;;;7.28;4.10;;;;;;;;;;5036202;28;20071;-87
2022/10/30 09:52:42;;;;;;;9.30;3.90;;;;;;;;;;5070523;28;20044;-87
2022/10/30 09:55:32;;;;;;;7.97;4.20;;;;;;;;;;5047339;28;20045;-87
2022/10/30 09:58:11;;;;;;;7.85;3.80;;;;;;;;;;5070465;28;20765;-87
2022/10/30 10:00:38;;;;;;;7.45;3.83;;;;;;;;;;5037971;28;20036;-88
2022/10/30 10:03:47;;;;;;;8.50;3.42;;;;;;;;;;5085160;28;20484;-87
2022/10/30 10:06:17;;;;;;;7.22;3.50;;;;;;;;;;5064405;28;20060;-88
2022/10/30 10:08:52;;;;;;;8.50;3.70;;;;;;;;;;5063810;28;20507;-89
2022/10/30 10:11:20;;;;;;;7.18;4.05;;;;;;;;;;5056027;28;20510;-87
2022/10/30 10:13:57;;;;;;;7.40;3.40;;;;;;;;;;5046733;28;20435;-86
2022/10/30 10:16:27;;;;;;;6.25;3.67;;;;;;;;;;5072431;28;20063;-85
2022/10/30 10:19:14;;;;;;;7.25;3.47;;;;;;;;;;5069150;28;20178;-82
2022/10/30 10:21:48;;;;;;;7.57;3.70;;;;;;;;;;5034707;28;20394;-84
2022/10/30 10:24:20;;;;;;;7.65;3.00;;;;;;;;;;5032346;28;20039;-84
2022/10/30 10:27:14;;;;;;;7.15;3.20;;;;;;;;;;5044970;28;20401;-83
2022/10/30 10:29:48;;;;;;;8.35;3.05;;;;;;;;;;5084964;28;20461;-84
2022/10/30 10:32:43;;;;;;;5.88;2.67;;;;;;;;;;5054605;28;20049;-82
2022/10/30 10:35:46;;;;;;;7.75;3.20;;;;;;;;;;5043250;28;20060;-83
2022/10/30 10:38:18;;;;;;;6.93;2.40;;;;;;;;;;5018310;28;20041;-83
2022/10/30 10:40:55;;;;;;;7.25;3.10;;;;;;;;;;5033441;28;20504;-83
2022/10/30 10:43:33;;;;;;;5.70;2.50;;;;;;;;;;5056361;28;20040;-83
2022/10/30 10:46:16;;;;;;;;;;;;;;;;;;5054709;28;20036;-83
2022/10/30 10:48:47;;;;;;;7.80;3.03;;;;;;;;;;5053660;28;19917;-83
2022/10/30 10:51:16;;;;;;;10.00;3.28;;;;;;;;;;5039584;28;20498;-85
2022/10/30 10:54:03;;;;;;;8.45;3.42;;;;;;;;;;5069037;28;20040;-85
2022/10/30 10:56:33;;;;;;;6.35;2.63;;;;;;;;;;5084793;28;20115;-86
2022/10/30 10:59:02;;;;;;;5.75;2.58;;;;;;;;;;5054042;28;20044;-86
2022/10/30 11:01:45;;;;;;;6.00;2.40;;;;;;;;;;5044342;28;20163;-85
2022/10/30 11:04:22;;;;;;;6.65;2.45;;;;;;;;;;5045438;28;20488;-86
2022/10/30 11:06:50;;;;;;;6.63;2.70;;;;;;;;;;5034221;28;20064;-84
2022/10/30 11:09:20;;;;;;;6.22;2.42;;;;;;;;;;5069481;28;20684;-84
2022/10/30 11:11:50;;;;;;;6.55;2.80;;;;;;;;;;5037207;28;20506;-84
2022/10/30 11:14:18;;;;;;;6.70;2.25;;;;;;;;;;5054595;28;20527;-84
2022/10/30 11:17:21;;;;;;;4.35;2.05;;;;;;;;;;5069074;28;20197;-82
2022/10/30 11:19:59;;;;;;;8.45;2.30;;;;;;;;;;5054359;28;20036;-84
2022/10/30 11:22:34;;;;;;;7.22;2.60;;;;;;;;;;5037520;28;20039;-84
2022/10/30 11:25:37;;;;;;;6.13;2.78;;;;;;;;;;5043731;28;20044;-84
2022/10/30 11:28:04;;;;;;;5.20;2.22;;;;;;;;;;5029585;28;20040;-85
2022/10/30 11:30:30;;;;;;;5.60;2.15;;;;;;;;;;5036382;28;20036;-84
2022/10/30 11:32:56;;;;;;;5.50;2.35;;;;;;;;;;5056891;28;20165;-84
2022/10/30 11:35:22;;;;;;;7.05;2.20;;;;;;;;;;5048152;28;20496;-85
2022/10/30 11:38:10;;;;;;;6.90;2.50;;;;;;;;;;5034295;28;20097;-83
2022/10/30 11:40:36;;;;;;;5.60;2.33;;;;;;;;;;5059069;28;20412;-83
2022/10/30 11:43:03;;;;;;;7.38;2.25;;;;;;;;;;5036823;28;20032;-83
2022/10/30 11:45:39;;;;;;;5.13;2.35;;;;;;;;;;5036829;28;20118;-84
2022/10/30 11:48:21;;;;;;;5.93;2.22;;;;;;;;;;5086284;28;20563;-84
2022/10/30 11:50:50;;;;;;;6.95;2.30;;;;;;;;;;5047347;28;20107;-84
2022/10/30 11:53:20;;;;;;;5.18;2.45;;;;;;;;;;5051478;28;20033;-83
2022/10/30 11:55:47;;;;;;;6.00;2.50;;;;;;;;;;5068964;28;20097;-84
2022/10/30 11:58:29;;;;;;;6.32;2.53;;;;;;;;;;5054183;28;20037;-85
2022/10/30 12:01:04;;;;;;;6.57;2.45;;;;;;;;;;5059336;28;20542;-84
2022/10/30 12:03:35;;;;;;;10.43;2.80;;;;;;;;;;5085897;28;20055;-83
2022/10/30 12:06:10;;;;;;;8.00;2.20;;;;;;;;;;5046913;28;20031;-83
2022/10/30 12:08:36;;;;;;;6.50;2.38;;;;;;;;;;5087856;28;20067;-85
2022/10/30 12:11:03;;;;;;;7.05;2.35;;;;;;;;;;5054675;28;20029;-84
2022/10/30 12:13:37;;;;;;;5.63;2.35;;;;;;;;;;5057216;28;20480;-83
2022/10/30 12:16:15;;;;;;;5.68;2.40;;;;;;;;;;5047258;28;20524;-83
2022/10/30 12:18:42;;;;;;;6.25;2.17;;;;;;;;;;5051915;28;20041;-82
2022/10/30 12:21:07;;;;;;;5.43;2.50;;;;;;;;;;5055268;28;20036;-83
2022/10/30 12:23:33;;;;;;;7.78;2.55;;;;;;;;;;5043263;28;20549;-83
2022/10/30 12:26:01;;;;;;;7.95;2.75;;;;;;;;;;5040111;28;20484;-83
2022/10/30 12:28:31;;;;;;;6.07;2.60;;;;;;;;;;5048158;28;20127;-82
2022/10/30 12:31:01;;;;;;;8.20;2.78;;;;;;;;;;5046731;28;20072;-84
2022/10/30 12:33:59;;;;;;;10.32;3.30;;;;;;;;;;5042866;28;20554;-82
2022/10/30 12:36:27;;;;;;;15.52;3.08;;;;;;;;;;5056136;28;20036;-83
2022/10/30 12:38:59;;;;;;;7.70;2.60;;;;;;;;;;5088495;28;20040;-84
2022/10/30 12:41:54;;;;;;;5.95;2.55;;;;;;;;;;5070504;28;20403;-83
2022/10/30 12:44:35;;;;;;;6.53;2.47;;;;;;;;;;5045235;28;20105;-83
2022/10/30 12:47:14;;;;;;;4.93;2.10;;;;;;;;;;5040646;28;20058;-83
2022/10/30 12:49:42;;;;;;;6.20;2.63;;;;;;;;;;5069387;28;20083;-78
2022/10/30 12:52:46;;;;;;;8.15;2.33;;;;;;;;;;5053557;28;20178;-83
2022/10/30 12:55:48;;;;;;;8.68;2.67;;;;;;;;;;5047134;28;20062;-83
2022/10/30 12:58:42;;;;;;;5.25;2.50;;;;;;;;;;5026060;28;20044;-84
2022/10/30 13:01:11;;;;;;;7.88;2.70;;;;;;;;;;5042875;28;20742;-83
2022/10/30 13:03:45;;;;;;;6.88;2.35;;;;;;;;;;5056045;28;20690;-83
2022/10/30 13:06:21;;;;;;;7.65;2.70;;;;;;;;;;5054072;28;20079;-83
2022/10/30 13:09:03;;;;;;;6.75;2.45;;;;;;;;;;5048318;28;20048;-81
2022/10/30 13:11:54;;;;;;;7.32;2.92;;;;;;;;;;5039775;28;20097;-82
2022/10/30 13:14:32;;;;;;;7.53;2.47;;;;;;;;;;5051871;28;20033;-82
2022/10/30 13:16:57;;;;;;;;;;;;;;;;;;5044094;28;20474;-85
2022/10/30 13:19:43;;;;;;;4.03;2.13;;;;;;;;;;5072553;28;19999;-85
2022/10/30 13:22:40;;;;;;;6.68;2.65;;;;;;;;;;4983053;28;20980;-86
2022/10/30 13:25:14;;;;;;;8.55;2.75;;;;;;;;;;4986810;28;20034;-84
2022/10/30 13:28:03;;;;;;;5.32;2.45;;;;;;;;;;4992590;28;20041;-84
2022/10/30 13:30:42;;;;;;;5.88;2.50;;;;;;;;;;4987423;28;20042;-84
2022/10/30 13:33:16;;;;;;;6.35;2.53;;;;;;;;;;4972619;28;20046;-84
2022/10/30 13:35:56;;;;;;;7.07;2.50;;;;;;;;;;4983131;28;20184;-85
2022/10/30 13:38:31;;;;;;;5.38;2.35;;;;;;;;;;4972463;28;20038;-85
2022/10/30 13:41:05;;;;;;;5.22;2.25;;;;;;;;;;4978527;28;20072;-85
2022/10/30 13:43:40;;;;;;;8.68;3.20;;;;;;;;;;4982352;28;20053;-84
2022/10/30 13:46:24;;;;;;;5.13;2.15;;;;;;;;;;4981125;28;20109;-84
2022/10/30 13:49:17;;;;;;;5.95;2.70;;;;;;;;;;4981209;28;20069;-83
2022/10/30 13:51:44;;;;;;;6.78;2.40;;;;;;;;;;4991099;28;20129;-83
2022/10/30 13:54:45;;;;;;;6.47;2.45;;;;;;;;;;4987151;28;20556;-85
2022/10/30 13:57:26;;;;;;;6.13;2.60;;;;;;;;;;4978998;28;20045;-85
2022/10/30 14:00:11;;;;;;;5.97;2.50;;;;;;;;;;5030079;28;20040;-84
2022/10/30 14:02:54;;;;;;;6.38;2.53;;;;;;;;;;5056033;28;20123;-84
2022/10/30 14:05:25;;;;;;;6.72;2.40;;;;;;;;;;5086506;28;20112;-85
2022/10/30 14:07:56;;;;;;;5.70;2.67;;;;;;;;;;5080224;28;20040;-85
2022/10/30 14:10:47;;;;;;;9.02;2.80;;;;;;;;;;5084788;28;20038;-85
2022/10/30 14:13:32;;;;;;;7.70;2.30;;;;;;;;;;5078536;28;20047;-84
2022/10/30 14:16:36;;;;;;;6.75;2.47;;;;;;;;;;4999815;28;20074;-87
2022/10/30 14:19:34;;;;;;;;;;;;;;;;;;;;;
2022/10/30 14:22:03;;;;;;;7.38;2.53;;;;;;;;;;5037448;28;20505;-86
2022/10/30 14:24:52;;;;;;;6.30;2.70;;;;;;;;;;5042094;28;20032;-87
2022/10/30 14:30:21;;;;;;;7.63;2.80;;;;;;;;;;5057428;28;20416;-87
2022/10/30 14:32:49;;;;;;;6.88;2.60;;;;;;;;;;5020307;28;20427;-86
2022/10/30 14:35:57;;;;;;;7.57;2.70;;;;;;;;;;5053415;28;20631;-89
2022/10/30 14:38:23;;;;;;;7.47;2.67;;;;;;;;;;5001467;28;20059;-88
2022/10/30 14:40:55;;;;;;;7.03;2.78;;;;;;;;;;5043634;28;20463;-88
2022/10/30 14:43:28;;;;;;;6.05;3.08;;;;;;;;;;5056034;28;20135;-88
2022/10/30 14:46:16;;;;;;;6.97;2.45;;;;;;;;;;5037947;28;20499;-89
2022/10/30 14:49:03;;;;;;;5.40;2.30;;;;;;;;;;5040492;28;20390;-89
2022/10/30 14:51:43;;;;;;;6.13;2.80;;;;;;;;;;5035338;28;20133;-89
2022/10/30 14:54:55;;;;;;;8.32;3.28;;;;;;;;;;5023436;28;20041;-90
2022/10/30 14:58:09;;;;;;;8.20;3.20;;;;;;;;;;4954890;28;20092;-89
2022/10/30 15:00:41;;;;;;;8.50;3.50;;;;;;;;;;4945092;28;20065;-89